Time;durP1;ratioP1;P1;durP2;ratioP2;P2;SDS_P1;SDS_P2;PMS_P1;PMS_P2;Temp;Humidity;BMP_temperature;BMP_pressure;BME280_temperature;BME280_humidity;BME280_pressure;Samples;Min_cycle;Max_cycle;Signal;HPM_P1;HPM_P2
2023/04/25 00:01:22;;;;;;;;;;;11.80;99.90;;;;;;5072682;28;20003;-70
2023/04/25 00:03:48;;;;;;;;;;;11.80;99.90;;;;;;5072734;28;19912;-70
2023/04/25 00:06:14;;;;;;;;;;;11.80;99.90;;;;;;5073954;28;19919;-71
2023/04/25 00:08:40;;;;;;;;;;;11.70;99.90;;;;;;5072312;28;19909;-70
2023/04/25 00:11:06;;;;;;;;;;;11.70;99.90;;;;;;5072630;28;20359;-70
2023/04/25 00:13:31;;;;;;;;;;;11.70;99.90;;;;;;5072559;28;20382;-71
2023/04/25 00:15:57;;;;;;;;;;;11.70;99.90;;;;;;5074120;28;19909;-69
2023/04/25 00:18:23;;;;;;;;;;;11.60;99.90;;;;;;5073456;28;19909;-69
2023/04/25 00:20:49;;;;;;;;;;;11.50;99.90;;;;;;5072594;28;19908;-70
2023/04/25 00:23:18;;;;;;;;;;;11.50;99.90;;;;;;5073698;28;19916;-70
2023/04/25 00:25:44;;;;;;;;;;;11.50;99.90;;;;;;5073432;28;19923;-71
2023/04/25 00:28:10;;;;;;;;;;;11.40;99.90;;;;;;5073388;28;19923;-70
2023/04/25 00:30:36;;;;;;;;;;;11.40;99.90;;;;;;5072334;28;19912;-71
2023/04/25 00:33:01;;;;;;;;;;;11.30;99.90;;;;;;5072558;28;20392;-70
2023/04/25 00:35:27;;;;;;;;;;;11.30;99.90;;;;;;5072543;28;19915;-69
2023/04/25 00:37:53;;;;;;;;;;;11.40;99.90;;;;;;5072947;28;19908;-69
2023/04/25 00:40:19;;;;;;;;;;;11.40;99.90;;;;;;5073284;28;19912;-70
2023/04/25 00:42:46;;;;;;;;;;;11.40;99.90;;;;;;5074037;28;19920;-70
2023/04/25 00:45:13;;;;;;;;;;;11.40;99.90;;;;;;5072091;28;19909;-69
2023/04/25 00:47:40;;;;;;;;;;;11.50;99.90;;;;;;5072895;28;19962;-70
2023/04/25 00:50:06;;;;;;;;;;;11.50;99.90;;;;;;5073659;28;19909;-70
2023/04/25 00:52:32;;;;;;;;;;;11.50;99.90;;;;;;5073536;28;19908;-70
2023/04/25 00:54:57;;;;;;;;;;;11.50;99.90;;;;;;5072650;28;19908;-71
2023/04/25 00:57:23;;;;;;;;;;;11.60;99.90;;;;;;5074015;28;19938;-70
2023/04/25 00:59:50;;;;;;;;;;;11.60;99.90;;;;;;5072275;28;19983;-70
2023/04/25 01:02:16;;;;;;;;;;;11.70;99.90;;;;;;5073688;28;19999;-71
2023/04/25 01:04:42;;;;;;;;;;;11.60;99.90;;;;;;5074351;28;19909;-70
2023/04/25 01:07:08;;;;;;;;;;;11.60;99.90;;;;;;5075231;28;19971;-69
2023/04/25 01:09:34;;;;;;;;;;;11.60;99.90;;;;;;5077361;28;20019;-70
2023/04/25 01:12:01;;;;;;;;;;;11.60;99.90;;;;;;5076039;28;19915;-70
2023/04/25 01:14:26;;;;;;;;;;;11.50;99.90;;;;;;5077150;28;19909;-70
2023/04/25 01:16:52;;;;;;;;;;;11.50;99.90;;;;;;5077214;28;19909;-70
2023/04/25 01:19:19;;;;;;;;;;;11.50;99.90;;;;;;5076869;28;19995;-69
2023/04/25 01:21:45;;;;;;;;;;;11.40;99.90;;;;;;5077292;28;20294;-70
2023/04/25 01:24:11;;;;;;;;;;;11.40;99.90;;;;;;5077629;28;20322;-70
2023/04/25 01:26:37;;;;;;;;;;;11.30;99.90;;;;;;5075429;28;19912;-70
2023/04/25 01:29:03;;;;;;;;;;;11.30;99.90;;;;;;5076784;28;19908;-71
2023/04/25 01:31:29;;;;;;;;;;;11.30;99.90;;;;;;5073670;28;20409;-71
2023/04/25 01:33:55;;;;;;;;;;;11.30;99.90;;;;;;5073021;28;20294;-70
2023/04/25 01:36:21;;;;;;;;;;;11.20;99.90;;;;;;5074090;28;19915;-71
2023/04/25 01:38:47;;;;;;;;;;;11.20;99.90;;;;;;5073310;28;19921;-73
2023/04/25 01:41:13;;;;;;;;;;;11.10;99.90;;;;;;5075559;28;19909;-69
2023/04/25 01:43:39;;;;;;;;;;;11.10;99.90;;;;;;5076752;28;19916;-71
2023/04/25 01:46:05;;;;;;;;;;;11.10;99.90;;;;;;5076731;28;20293;-70
2023/04/25 01:48:31;;;;;;;;;;;11.20;99.90;;;;;;5075725;28;19979;-70
2023/04/25 01:50:57;;;;;;;;;;;11.20;99.90;;;;;;5075446;28;19908;-73
2023/04/25 01:53:22;;;;;;;;;;;11.20;99.90;;;;;;5076304;28;19928;-70
2023/04/25 01:55:48;;;;;;;;;;;11.20;99.90;;;;;;5076719;28;19908;-70
2023/04/25 01:58:13;;;;;;;;;;;11.20;99.90;;;;;;5074932;28;19913;-71
2023/04/25 02:00:40;;;;;;;;;;;11.10;99.90;;;;;;5075982;28;19908;-69
2023/04/25 02:03:06;;;;;;;;;;;11.00;99.90;;;;;;5076190;28;19920;-71
2023/04/25 02:05:36;;;;;;;;;;;11.00;99.90;;;;;;5076431;28;19966;-70
2023/04/25 02:08:03;;;;;;;;;;;10.90;99.90;;;;;;5075586;28;20004;-70
2023/04/25 02:10:28;;;;;;;;;;;10.80;99.90;;;;;;5074953;28;20443;-71
2023/04/25 02:12:54;;;;;;;;;;;10.80;99.90;;;;;;5074653;28;19913;-70
2023/04/25 02:15:19;;;;;;;;;;;10.80;99.90;;;;;;5075634;28;19954;-72
2023/04/25 02:17:45;;;;;;;;;;;10.80;99.90;;;;;;5075418;28;19908;-70
2023/04/25 02:20:11;;;;;;;;;;;10.80;99.90;;;;;;5075088;28;19980;-70
2023/04/25 02:22:37;;;;;;;;;;;10.80;99.90;;;;;;5075825;28;19966;-70
2023/04/25 02:25:04;;;;;;;;;;;10.70;99.90;;;;;;5074470;28;19999;-70
2023/04/25 02:27:30;;;;;;;;;;;10.60;99.90;;;;;;5075154;28;19952;-70
2023/04/25 02:29:56;;;;;;;;;;;10.60;99.90;;;;;;5073834;28;19999;-70
2023/04/25 02:32:21;;;;;;;;;;;10.60;99.90;;;;;;5074504;28;19947;-71
2023/04/25 02:34:47;;;;;;;;;;;10.60;99.90;;;;;;5074536;28;19963;-70
2023/04/25 02:37:13;;;;;;;;;;;10.60;99.90;;;;;;5075519;28;19916;-70
2023/04/25 02:39:39;;;;;;;;;;;10.60;99.90;;;;;;5073909;28;19909;-70
2023/04/25 02:42:04;;;;;;;;;;;10.50;99.90;;;;;;5074178;28;19966;-70
2023/04/25 02:44:30;;;;;;;;;;;10.60;99.90;;;;;;5074220;28;20054;-71
2023/04/25 02:46:56;;;;;;;;;;;10.60;99.90;;;;;;5075328;28;20391;-70
2023/04/25 02:49:21;;;;;;;;;;;10.60;99.90;;;;;;5075158;28;19989;-70
2023/04/25 02:51:47;;;;;;;;;;;10.60;99.90;;;;;;5074080;28;19999;-69
2023/04/25 02:54:13;;;;;;;;;;;10.60;99.90;;;;;;5075427;28;20000;-71
2023/04/25 02:56:38;;;;;;;;;;;10.60;99.90;;;;;;5073769;28;19916;-71
2023/04/25 02:59:04;;;;;;;;;;;10.60;99.90;;;;;;5074698;28;20365;-71
2023/04/25 03:01:30;;;;;;;;;;;10.70;99.90;;;;;;5074927;28;19913;-70
2023/04/25 03:03:55;;;;;;;;;;;10.70;99.90;;;;;;5073492;28;19915;-72
2023/04/25 03:06:21;;;;;;;;;;;10.70;99.90;;;;;;5075110;28;20516;-70
2023/04/25 03:08:47;;;;;;;;;;;10.70;99.90;;;;;;5073216;28;19938;-70
2023/04/25 03:11:12;;;;;;;;;;;10.70;99.90;;;;;;5073326;28;19908;-70
2023/04/25 03:13:38;;;;;;;;;;;10.70;99.90;;;;;;5074639;28;20297;-70
2023/04/25 03:16:04;;;;;;;;;;;10.70;99.90;;;;;;5074837;28;19912;-70
2023/04/25 03:18:29;;;;;;;;;;;10.70;99.90;;;;;;5072843;28;20008;-72
2023/04/25 03:20:55;;;;;;;;;;;10.70;99.90;;;;;;5073484;28;19917;-73
2023/04/25 03:23:21;;;;;;;;;;;10.60;99.90;;;;;;5073385;28;19920;-70
2023/04/25 03:25:46;;;;;;;;;;;10.50;99.90;;;;;;5073253;28;20294;-70
2023/04/25 03:28:12;;;;;;;;;;;10.50;99.90;;;;;;5072479;28;19917;-71
2023/04/25 03:30:38;;;;;;;;;;;10.50;99.90;;;;;;5074202;28;19939;-69
2023/04/25 03:33:03;;;;;;;;;;;10.40;99.90;;;;;;5073205;28;19920;-70
2023/04/25 03:35:29;;;;;;;;;;;10.40;99.90;;;;;;5075497;28;19915;-70
2023/04/25 03:37:55;;;;;;;;;;;10.40;99.90;;;;;;5075139;28;19943;-75
2023/04/25 03:40:20;;;;;;;;;;;10.40;99.90;;;;;;5073344;28;20474;-73
2023/04/25 03:42:46;;;;;;;;;;;10.50;99.90;;;;;;5074083;28;20394;-70
2023/04/25 03:45:12;;;;;;;;;;;10.50;99.90;;;;;;5072445;28;20383;-70
2023/04/25 03:47:37;;;;;;;;;;;10.50;99.90;;;;;;5072634;28;19971;-69
2023/04/25 03:50:03;;;;;;;;;;;10.40;99.90;;;;;;5072527;28;19908;-70
2023/04/25 03:52:29;;;;;;;;;;;10.50;99.90;;;;;;5073526;28;20315;-70
2023/04/25 03:54:54;;;;;;;;;;;10.50;99.90;;;;;;5073702;28;19993;-70
2023/04/25 03:57:20;;;;;;;;;;;10.50;99.90;;;;;;5074185;28;20359;-70
2023/04/25 03:59:46;;;;;;;;;;;10.50;99.90;;;;;;5072599;28;19952;-70
2023/04/25 04:02:11;;;;;;;;;;;10.60;99.90;;;;;;5072621;28;20140;-70
2023/04/25 04:04:37;;;;;;;;;;;10.60;99.90;;;;;;5073095;28;19915;-70
2023/04/25 04:07:02;;;;;;;;;;;10.70;99.90;;;;;;5073096;28;20320;-69
2023/04/25 04:09:28;;;;;;;;;;;10.80;99.90;;;;;;5073354;28;19943;-69
2023/04/25 04:11:54;;;;;;;;;;;10.80;99.90;;;;;;5074129;28;19920;-70
2023/04/25 04:14:20;;;;;;;;;;;10.90;99.90;;;;;;5072485;28;19966;-72
2023/04/25 04:16:47;;;;;;;;;;;10.90;99.90;;;;;;5073846;28;19908;-69
2023/04/25 04:19:13;;;;;;;;;;;11.00;99.90;;;;;;5072762;28;19989;-70
2023/04/25 04:21:39;;;;;;;;;;;11.00;99.90;;;;;;5072207;28;19960;-69
2023/04/25 04:24:05;;;;;;;;;;;11.00;99.90;;;;;;5072308;28;19943;-69
2023/04/25 04:26:31;;;;;;;;;;;11.00;99.90;;;;;;5073595;28;20363;-69
2023/04/25 04:28:59;;;;;;;;;;;11.00;99.90;;;;;;5073122;28;20380;-70
2023/04/25 04:31:24;;;;;;;;;;;10.90;99.90;;;;;;5072381;28;20305;-73
2023/04/25 04:33:51;;;;;;;;;;;11.00;99.90;;;;;;5074316;28;19909;-70
2023/04/25 04:36:22;;;;;;;;;;;11.10;99.90;;;;;;5072936;28;20124;-70
2023/04/25 04:38:49;;;;;;;;;;;11.20;99.90;;;;;;5073968;28;20305;-70
2023/04/25 04:41:14;;;;;;;;;;;11.30;99.90;;;;;;5073722;28;19912;-72
2023/04/25 04:43:40;;;;;;;;;;;11.40;99.90;;;;;;5078031;28;19913;-70
2023/04/25 04:46:05;;;;;;;;;;;11.50;99.90;;;;;;5076304;28;19916;-69
2023/04/25 04:48:34;;;;;;;;;;;11.50;99.90;;;;;;5077358;28;19916;-70
2023/04/25 04:51:00;;;;;;;;;;;11.60;99.90;;;;;;5077536;28;20298;-70
2023/04/25 04:53:26;;;;;;;;;;;11.70;99.90;;;;;;5077888;28;19909;-70
2023/04/25 04:55:51;;;;;;;;;;;11.80;99.90;;;;;;5076753;28;19908;-70
2023/04/25 04:58:17;;;;;;;;;;;12.00;99.90;;;;;;5077332;28;20259;-73
2023/04/25 05:00:43;;;;;;;;;;;12.10;99.90;;;;;;5076058;28;19913;-70
2023/04/25 05:03:08;;;;;;;;;;;12.30;99.90;;;;;;5074541;28;20297;-70
2023/04/25 05:05:34;;;;;;;;;;;12.40;99.90;;;;;;5075351;28;20338;-70
2023/04/25 05:08:00;;;;;;;;;;;12.50;99.90;;;;;;5074691;28;19909;-70
2023/04/25 05:10:25;;;;;;;;;;;12.60;99.90;;;;;;5075036;28;19931;-71
2023/04/25 05:12:51;;;;;;;;;;;12.70;99.90;;;;;;5076590;28;19908;-70
2023/04/25 05:15:17;;;;;;;;;;;12.70;99.90;;;;;;5076641;28;19913;-69
2023/04/25 05:17:42;;;;;;;;;;;12.70;99.90;;;;;;5076181;28;19909;-70
2023/04/25 05:20:11;;;;;;;;;;;12.80;99.90;;;;;;5075650;28;19908;-70
2023/04/25 05:22:37;;;;;;;;;;;12.90;99.90;;;;;;5076668;28;19912;-69
2023/04/25 05:25:03;;;;;;;;;;;12.90;99.90;;;;;;5075776;28;19908;-70
2023/04/25 05:27:29;;;;;;;;;;;13.00;99.90;;;;;;5076423;28;20100;-70
2023/04/25 05:29:54;;;;;;;;;;;13.00;99.90;;;;;;5076366;28;19908;-70
2023/04/25 05:32:20;;;;;;;;;;;13.10;99.90;;;;;;5075570;28;19908;-70
2023/04/25 05:34:46;;;;;;;;;;;13.20;99.90;;;;;;5077113;28;19912;-70
2023/04/25 05:37:11;;;;;;;;;;;13.30;99.90;;;;;;5075450;28;19909;-68
2023/04/25 05:39:37;;;;;;;;;;;13.40;99.90;;;;;;5074840;28;19909;-70
2023/04/25 05:42:03;;;;;;;;;;;13.50;99.90;;;;;;5076294;28;20015;-70
2023/04/25 05:44:29;;;;;;;;;;;13.50;99.90;;;;;;5075470;28;20445;-70
2023/04/25 05:46:55;;;;;;;;;;;13.60;99.90;;;;;;5075448;28;20437;-71
2023/04/25 05:49:21;;;;;;;;;;;13.70;99.90;;;;;;5076272;28;19988;-70
2023/04/25 05:51:46;;;;;;;;;;;13.70;99.90;;;;;;5076429;28;19955;-70
2023/04/25 05:54:12;;;;;;;;;;;13.80;99.90;;;;;;5074159;28;20336;-70
2023/04/25 05:56:37;;;;;;;;;;;13.80;99.90;;;;;;5076422;28;19908;-69
2023/04/25 05:59:03;;;;;;;;;;;13.80;99.90;;;;;;5076326;28;19913;-70
2023/04/25 06:01:29;;;;;;;;;;;13.90;99.90;;;;;;5074875;28;19909;-70
2023/04/25 06:03:54;;;;;;;;;;;13.90;99.90;;;;;;5076358;28;19909;-69
2023/04/25 06:06:20;;;;;;;;;;;14.00;99.90;;;;;;5075103;28;19915;-70
2023/04/25 06:08:46;;;;;;;;;;;14.10;99.90;;;;;;5075762;28;19912;-70
2023/04/25 06:11:11;;;;;;;;;;;14.10;99.90;;;;;;5075729;28;20011;-70
2023/04/25 06:13:37;;;;;;;;;;;14.10;99.90;;;;;;5076096;28;19912;-70
2023/04/25 06:16:03;;;;;;;;;;;14.20;99.90;;;;;;5075558;28;19915;-70
2023/04/25 06:18:28;;;;;;;;;;;14.20;99.90;;;;;;5075179;28;19909;-70
2023/04/25 06:20:54;;;;;;;;;;;14.40;99.90;;;;;;5074861;28;19967;-70
2023/04/25 06:23:20;;;;;;;;;;;14.50;99.90;;;;;;5075767;28;19962;-70
2023/04/25 06:25:45;;;;;;;;;;;14.50;99.90;;;;;;5075977;28;19915;-70
2023/04/25 06:28:11;;;;;;;;;;;14.50;99.90;;;;;;5075293;28;19917;-70
2023/04/25 06:30:37;;;;;;;;;;;14.50;99.90;;;;;;5075390;28;19955;-71
2023/04/25 06:33:02;;;;;;;;;;;14.50;99.90;;;;;;5074561;28;20282;-70
2023/04/25 06:35:28;;;;;;;;;;;14.60;99.90;;;;;;5075708;28;19913;-70
2023/04/25 06:37:54;;;;;;;;;;;14.70;99.90;;;;;;5073919;28;19958;-70
2023/04/25 06:40:19;;;;;;;;;;;14.70;99.90;;;;;;5075607;28;19909;-70
2023/04/25 06:42:45;;;;;;;;;;;14.70;99.90;;;;;;5074499;28;19912;-70
2023/04/25 06:45:10;;;;;;;;;;;14.80;99.90;;;;;;5074281;28;19926;-69
2023/04/25 06:47:36;;;;;;;;;;;14.90;99.90;;;;;;5075378;28;19908;-69
2023/04/25 06:50:02;;;;;;;;;;;14.90;99.90;;;;;;5074661;28;19908;-70
2023/04/25 06:52:27;;;;;;;;;;;15.00;99.90;;;;;;5074028;28;19908;-70
2023/04/25 06:54:53;;;;;;;;;;;15.00;99.90;;;;;;5073683;28;19970;-70
2023/04/25 06:57:19;;;;;;;;;;;15.10;99.90;;;;;;5074930;28;20354;-70
2023/04/25 06:59:45;;;;;;;;;;;15.00;99.90;;;;;;5073530;28;20007;-71
2023/04/25 07:02:10;;;;;;;;;;;15.10;99.90;;;;;;5075528;28;20578;-71
2023/04/25 07:04:36;;;;;;;;;;;14.90;99.90;;;;;;5074484;28;19915;-70
2023/04/25 07:07:02;;;;;;;;;;;14.60;99.90;;;;;;5074871;28;20343;-70
2023/04/25 07:09:28;;;;;;;;;;;14.50;99.90;;;;;;5074106;28;19991;-70
2023/04/25 07:11:54;;;;;;;;;;;14.30;99.90;;;;;;5074870;28;19951;-71
2023/04/25 07:14:20;;;;;;;;;;;14.10;99.90;;;;;;5074307;28;20273;-70
2023/04/25 07:16:45;;;;;;;;;;;14.00;99.90;;;;;;5074550;28;19909;-69
2023/04/25 07:19:11;;;;;;;;;;;14.00;99.90;;;;;;5074416;28;20310;-70
2023/04/25 07:21:36;;;;;;;;;;;14.00;99.90;;;;;;5074192;28;19909;-70
2023/04/25 07:24:02;;;;;;;;;;;14.00;99.90;;;;;;5073423;28;19955;-70
2023/04/25 07:26:28;;;;;;;;;;;14.10;99.90;;;;;;5073999;28;19916;-69
2023/04/25 07:28:54;;;;;;;;;;;14.10;99.90;;;;;;5072890;28;19919;-72
2023/04/25 07:31:20;;;;;;;;;;;14.00;99.90;;;;;;5073854;28;19935;-71
2023/04/25 07:33:45;;;;;;;;;;;14.00;99.90;;;;;;5072723;28;20203;-70
2023/04/25 07:36:12;;;;;;;;;;;14.00;99.90;;;;;;5073376;28;19908;-70
2023/04/25 07:38:38;;;;;;;;;;;14.00;99.90;;;;;;5073585;28;19908;-70
2023/04/25 07:41:04;;;;;;;;;;;14.10;99.90;;;;;;5074811;28;20442;-71
2023/04/25 07:43:30;;;;;;;;;;;14.10;99.90;;;;;;5072696;28;20015;-71
2023/04/25 07:45:56;;;;;;;;;;;14.10;99.90;;;;;;5072804;28;19908;-70
2023/04/25 07:48:22;;;;;;;;;;;14.10;99.90;;;;;;5072766;28;19999;-70
2023/04/25 07:50:47;;;;;;;;;;;14.20;99.90;;;;;;5074149;28;20386;-71
2023/04/25 07:53:13;;;;;;;;;;;14.20;99.90;;;;;;5074347;28;20282;-70
2023/04/25 07:55:40;;;;;;;;;;;14.20;99.90;;;;;;5074087;28;19981;-70
2023/04/25 07:58:06;;;;;;;;;;;14.30;99.90;;;;;;5072721;28;20370;-73
2023/04/25 08:00:31;;;;;;;;;;;14.30;99.90;;;;;;5072465;28;19999;-70
2023/04/25 08:02:57;;;;;;;;;;;14.30;99.90;;;;;;5072314;28;20004;-71
2023/04/25 08:05:22;;;;;;;;;;;14.30;99.90;;;;;;5072988;28;20019;-70
2023/04/25 08:07:48;;;;;;;;;;;14.30;99.90;;;;;;5072497;28;19962;-70
2023/04/25 08:10:14;;;;;;;;;;;14.30;99.90;;;;;;5072699;28;19970;-69
2023/04/25 08:12:40;;;;;;;;;;;14.30;99.90;;;;;;5073682;28;19940;-72
2023/04/25 08:15:06;;;;;;;;;;;14.30;99.90;;;;;;5074379;28;19915;-73
2023/04/25 08:17:31;;;;;;;;;;;14.20;99.90;;;;;;5074938;28;19919;-70
2023/04/25 08:19:57;;;;;;;;;;;14.10;99.90;;;;;;5076421;28;19916;-71
2023/04/25 08:22:23;;;;;;;;;;;14.10;99.90;;;;;;5076622;28;19920;-71
2023/04/25 08:24:48;;;;;;;;;;;14.00;99.90;;;;;;5078181;28;19912;-70
2023/04/25 08:27:14;;;;;;;;;;;13.90;99.90;;;;;;5077910;28;19921;-70
2023/04/25 08:29:41;;;;;;;;;;;13.90;99.90;;;;;;5078025;28;19918;-69
2023/04/25 08:32:07;;;;;;;;;;;13.90;99.90;;;;;;5079126;28;20273;-70
2023/04/25 08:34:32;;;;;;;;;;;13.80;99.90;;;;;;5077137;28;19915;-68
2023/04/25 08:36:58;;;;;;;;;;;13.80;99.90;;;;;;5077678;28;19919;-71
2023/04/25 08:39:23;;;;;;;;;;;13.80;99.90;;;;;;5077591;28;20453;-70
2023/04/25 08:41:50;;;;;;;;;;;13.80;99.90;;;;;;5075989;28;20248;-70
2023/04/25 08:44:16;;;;;;;;;;;13.80;99.90;;;;;;5077928;28;19964;-70
2023/04/25 08:46:42;;;;;;;;;;;13.80;99.90;;;;;;5077288;28;20007;-70
2023/04/25 08:49:10;;;;;;;;;;;13.80;99.90;;;;;;5078512;28;19980;-70
2023/04/25 08:51:43;;;;;;;;;;;13.80;99.90;;;;;;5076462;28;20061;-71
2023/04/25 08:54:10;;;;;;;;;;;13.80;99.90;;;;;;5077249;28;20003;-69
2023/04/25 08:56:37;;;;;;;;;;;13.80;99.90;;;;;;5077333;28;19919;-71
2023/04/25 08:59:03;;;;;;;;;;;13.60;99.90;;;;;;5076794;28;19999;-73
2023/04/25 09:01:29;;;;;;;;;;;13.60;99.90;;;;;;5077235;28;19990;-71
2023/04/25 09:03:55;;;;;;;;;;;13.70;99.90;;;;;;5077062;28;20405;-71
2023/04/25 09:06:21;;;;;;;;;;;13.80;99.90;;;;;;5074884;28;19908;-70
2023/04/25 09:08:46;;;;;;;;;;;13.80;99.90;;;;;;5076426;28;19918;-71
2023/04/25 09:11:13;;;;;;;;;;;13.80;99.90;;;;;;5077228;28;20007;-75
2023/04/25 09:13:38;;;;;;;;;;;13.80;99.90;;;;;;5076839;28;19908;-70
2023/04/25 09:16:04;;;;;;;;;;;13.70;99.90;;;;;;5076662;28;20378;-70
2023/04/25 09:18:31;;;;;;;;;;;13.80;99.90;;;;;;5074937;28;19909;-71
2023/04/25 09:20:58;;;;;;;;;;;13.80;99.90;;;;;;5076879;28;19908;-69
2023/04/25 09:23:24;;;;;;;;;;;13.70;99.90;;;;;;5075390;28;19963;-70
2023/04/25 09:25:50;;;;;;;;;;;13.60;99.90;;;;;;5076462;28;19940;-70
2023/04/25 09:28:16;;;;;;;;;;;13.70;99.90;;;;;;5074303;28;19923;-70
2023/04/25 09:30:42;;;;;;;;;;;13.50;99.90;;;;;;5076653;28;20382;-71
2023/04/25 09:33:08;;;;;;;;;;;13.50;99.90;;;;;;5075497;28;20375;-71
2023/04/25 09:35:38;;;;;;;;;;;13.50;99.90;;;;;;5075123;28;19909;-70
2023/04/25 09:38:07;;;;;;;;;;;13.50;99.90;;;;;;5075879;28;20362;-70
2023/04/25 09:40:33;;;;;;;;;;;13.50;99.90;;;;;;5075579;28;19908;-70
2023/04/25 09:42:59;;;;;;;;;;;13.50;99.90;;;;;;5074584;28;20171;-70
2023/04/25 09:45:24;;;;;;;;;;;13.40;99.90;;;;;;5076035;28;19948;-71
2023/04/25 09:47:50;;;;;;;;;;;13.30;99.90;;;;;;5074455;28;19912;-71
2023/04/25 09:50:17;;;;;;;;;;;13.20;99.90;;;;;;5076495;28;20349;-70
2023/04/25 09:52:42;;;;;;;;;;;13.20;99.90;;;;;;5076260;28;19919;-71
2023/04/25 09:55:08;;;;;;;;;;;13.20;99.90;;;;;;5075016;28;19909;-71
2023/04/25 09:57:35;;;;;;;;;;;13.30;99.90;;;;;;5075796;28;19919;-72
2023/04/25 10:00:03;;;;;;;;;;;13.40;99.90;;;;;;5075874;28;19909;-71
2023/04/25 10:02:30;;;;;;;;;;;13.30;99.90;;;;;;5074806;28;19919;-71
2023/04/25 10:04:56;;;;;;;;;;;13.20;99.90;;;;;;5074701;28;19909;-70
2023/04/25 10:07:26;;;;;;;;;;;13.20;99.90;;;;;;5074768;28;19961;-71
2023/04/25 10:09:56;;;;;;;;;;;13.10;99.90;;;;;;5075933;28;20007;-71
2023/04/25 10:12:21;;;;;;;;;;;13.20;99.90;;;;;;5075134;28;19908;-71
2023/04/25 10:14:47;;;;;;;;;;;13.10;99.90;;;;;;5074751;28;19915;-71
2023/04/25 10:17:13;;;;;;;;;;;13.00;99.90;;;;;;5074755;28;20394;-70
2023/04/25 10:19:39;;;;;;;;;;;13.10;99.90;;;;;;5073926;28;19916;-71
2023/04/25 10:22:14;;;;;;;;;;;13.00;99.90;;;;;;5073839;28;19912;-71
2023/04/25 10:24:40;;;;;;;;;;;13.00;99.90;;;;;;5074362;28;19935;-74
2023/04/25 10:27:06;;;;;;;;;;;12.90;99.90;;;;;;5075374;28;19923;-71
2023/04/25 10:29:32;;;;;;;;;;;13.00;99.90;;;;;;5073705;28;19909;-71
2023/04/25 10:31:57;;;;;;;;;;;13.00;99.90;;;;;;5075787;28;19913;-71
2023/04/25 10:34:42;;;;;;;;;;;13.00;99.90;;;;;;5075610;28;19909;-70
2023/04/25 10:37:11;;;;;;;;;;;13.10;99.90;;;;;;5074099;28;19908;-71
2023/04/25 10:39:38;;;;;;;;;;;13.10;99.90;;;;;;5073413;28;20460;-71
2023/04/25 10:42:04;;;;;;;;;;;13.10;99.90;;;;;;5074025;28;20387;-71
2023/04/25 10:44:30;;;;;;;;;;;13.10;99.90;;;;;;5073675;28;19920;-70
2023/04/25 10:46:56;;;;;;;;;;;13.20;99.90;;;;;;5074906;28;20389;-70
2023/04/25 10:49:28;;;;;;;;;;;13.20;99.90;;;;;;5073494;28;19916;-71
2023/04/25 10:52:10;;;;;;;;;;;13.30;99.90;;;;;;5075164;28;19912;-71
2023/04/25 10:54:39;;;;;;;;;;;13.20;99.90;;;;;;5073639;28;19908;-70
2023/04/25 10:57:05;;;;;;;;;;;13.30;99.90;;;;;;5075128;28;19908;-71
2023/04/25 10:59:31;;;;;;;;;;;13.30;99.90;;;;;;5074816;28;19954;-71
2023/04/25 11:01:57;;;;;;;;;;;13.30;99.90;;;;;;5073064;28;20375;-70
2023/04/25 11:04:33;;;;;;;;;;;13.20;99.90;;;;;;5075171;28;19923;-71
2023/04/25 11:07:17;;;;;;;;;;;13.20;99.90;;;;;;5075270;28;19951;-70
2023/04/25 11:09:45;;;;;;;;;;;13.10;99.90;;;;;;5073407;28;19908;-71
2023/04/25 11:12:13;;;;;;;;;;;13.00;99.90;;;;;;5075051;28;20334;-71
2023/04/25 11:14:39;;;;;;;;;;;13.10;99.90;;;;;;5074044;28;19913;-76
2023/04/25 11:17:05;;;;;;;;;;;13.10;99.90;;;;;;5074590;28;19917;-70
2023/04/25 11:19:31;;;;;;;;;;;13.20;99.90;;;;;;5074261;28;19908;-70
2023/04/25 11:21:57;;;;;;;;;;;13.20;99.90;;;;;;5073243;28;19912;-70
2023/04/25 11:24:30;;;;;;;;;;;13.20;99.90;;;;;;5074416;28;19908;-71
2023/04/25 11:26:57;;;;;;;;;;;13.30;99.90;;;;;;5072687;28;20380;-71
2023/04/25 11:29:23;;;;;;;;;;;13.30;99.90;;;;;;5074014;28;20066;-71
2023/04/25 11:31:49;;;;;;;;;;;13.30;99.90;;;;;;5072935;28;20294;-72
2023/04/25 11:34:18;;;;;;;;;;;13.30;99.90;;;;;;5074335;28;19912;-71
2023/04/25 11:36:44;;;;;;;;;;;13.30;99.90;;;;;;5074627;28;19915;-71
2023/04/25 11:39:10;;;;;;;;;;;13.30;99.90;;;;;;5074409;28;19947;-71
2023/04/25 11:41:37;;;;;;;;;;;13.30;99.90;;;;;;5073038;28;19909;-70
2023/04/25 11:44:03;;;;;;;;;;;13.20;99.90;;;;;;5073149;28;20290;-71
2023/04/25 11:46:28;;;;;;;;;;;13.20;99.90;;;;;;5073209;28;19909;-71
2023/04/25 11:48:55;;;;;;;;;;;13.20;99.90;;;;;;5074194;28;19920;-70
2023/04/25 11:51:21;;;;;;;;;;;13.10;99.90;;;;;;5073817;28;19908;-70
2023/04/25 11:53:46;;;;;;;;;;;13.10;99.90;;;;;;5072716;28;20043;-71
2023/04/25 11:56:12;;;;;;;;;;;13.10;99.90;;;;;;5074190;28;19915;-70
2023/04/25 11:58:54;;;;;;;;;;;13.00;99.90;;;;;;5074207;28;20287;-71
2023/04/25 12:01:30;;;;;;;;;;;13.00;99.90;;;;;;5072440;28;20423;-71
2023/04/25 12:03:56;;;;;;;;;;;12.90;99.90;;;;;;5073557;28;20290;-71
2023/04/25 12:06:26;;;;;;;;;;;13.00;99.90;;;;;;5074115;28;19909;-71
2023/04/25 12:09:01;;;;;;;;;;;13.00;99.90;;;;;;5071548;28;20400;-71
2023/04/25 12:11:27;;;;;;;;;;;13.00;99.90;;;;;;5071731;28;20358;-71
2023/04/25 12:13:53;;;;;;;;;;;13.00;99.90;;;;;;5070257;28;19916;-71
2023/04/25 12:16:19;;;;;;;;;;;13.00;99.90;;;;;;5071852;28;19909;-70
2023/04/25 12:18:45;;;;;;;;;;;13.00;99.90;;;;;;5073767;28;19919;-75
2023/04/25 12:21:10;;;;;;;;;;;12.90;99.90;;;;;;5074376;28;19908;-70
2023/04/25 12:23:38;;;;;;;;;;;12.90;99.90;;;;;;5074510;28;19912;-70
2023/04/25 12:26:04;;;;;;;;;;;12.80;99.90;;;;;;5074269;28;19915;-70
2023/04/25 12:28:32;;;;;;;;;;;12.80;99.90;;;;;;5073635;28;19988;-68
2023/04/25 12:31:08;;;;;;;;;;;12.70;99.90;;;;;;5074019;28;19909;-73
2023/04/25 12:33:34;;;;;;;;;;;12.80;99.90;;;;;;5074252;28;19962;-69
2023/04/25 12:36:03;;;;;;;;;;;12.80;99.90;;;;;;5073590;28;20007;-70
2023/04/25 12:38:35;;;;;;;;;;;13.00;99.90;;;;;;5072260;28;19944;-71
2023/04/25 12:41:01;;;;;;;;;;;13.00;99.90;;;;;;5074118;28;20413;-74
2023/04/25 12:43:27;;;;;;;;;;;13.10;99.90;;;;;;5072567;28;19912;-71
2023/04/25 12:45:53;;;;;;;;;;;13.20;99.90;;;;;;5072426;28;19909;-71
2023/04/25 12:48:19;;;;;;;;;;;13.20;99.90;;;;;;5072627;28;19916;-71
2023/04/25 12:50:47;;;;;;;;;;;13.20;99.90;;;;;;5073798;28;20294;-71
2023/04/25 12:53:13;;;;;;;;;;;13.20;99.90;;;;;;5073695;28;19959;-71
2023/04/25 12:55:38;;;;;;;;;;;13.40;99.90;;;;;;5067379;28;19912;-70
2023/04/25 12:58:04;;;;;;;;;;;13.30;99.90;;;;;;5070738;28;19916;-71
2023/04/25 13:00:30;;;;;;;;;;;13.30;99.90;;;;;;5072203;28;19915;-71
2023/04/25 13:02:56;;;;;;;;;;;13.30;99.90;;;;;;5074102;28;19912;-71
2023/04/25 13:05:21;;;;;;;;;;;13.40;99.90;;;;;;5068657;28;19924;-71
2023/04/25 13:07:47;;;;;;;;;;;13.30;99.90;;;;;;5066750;28;19921;-70
2023/04/25 13:10:13;;;;;;;;;;;13.40;99.90;;;;;;5079273;28;19913;-71
2023/04/25 13:12:38;;;;;;;;;;;13.40;99.90;;;;;;5065105;28;19919;-71
2023/04/25 13:15:04;;;;;;;;;;;13.60;99.90;;;;;;5076560;28;20278;-70
2023/04/25 13:17:30;;;;;;;;;;;13.80;99.90;;;;;;5076561;28;19962;-71
2023/04/25 13:19:55;;;;;;;;;;;13.70;99.90;;;;;;5074690;28;19908;-71
2023/04/25 13:22:21;;;;;;;;;;;13.80;99.90;;;;;;5076348;28;19912;-71
2023/04/25 13:24:47;;;;;;;;;;;13.90;99.90;;;;;;5075139;28;20313;-71
2023/04/25 13:27:13;;;;;;;;;;;14.00;99.90;;;;;;5076642;28;19932;-73
2023/04/25 13:29:40;;;;;;;;;;;14.10;99.90;;;;;;5076306;28;20286;-71
2023/04/25 13:32:06;;;;;;;;;;;14.10;99.90;;;;;;5075329;28;19908;-71
2023/04/25 13:34:31;;;;;;;;;;;14.20;99.90;;;;;;5074847;28;19908;-71
2023/04/25 13:36:57;;;;;;;;;;;14.20;99.90;;;;;;5074444;28;19931;-71
2023/04/25 13:39:23;;;;;;;;;;;14.20;99.90;;;;;;5074208;28;20290;-73
2023/04/25 13:41:48;;;;;;;;;;;14.10;99.90;;;;;;5075728;28;20287;-70
2023/04/25 13:44:14;;;;;;;;;;;14.10;99.90;;;;;;5074781;28;20328;-73
2023/04/25 13:46:40;;;;;;;;;;;14.10;99.90;;;;;;5076263;28;19909;-70
2023/04/25 13:49:05;;;;;;;;;;;14.20;99.90;;;;;;5074403;28;19913;-71
2023/04/25 13:51:31;;;;;;;;;;;14.30;99.90;;;;;;5075765;28;19908;-71
2023/04/25 13:53:57;;;;;;;;;;;14.40;99.90;;;;;;5074179;28;19916;-70
2023/04/25 13:56:23;;;;;;;;;;;14.50;99.90;;;;;;5074338;28;19908;-71
2023/04/25 13:58:51;;;;;;;;;;;14.60;99.90;;;;;;5075642;28;20383;-72
2023/04/25 14:01:17;;;;;;;;;;;14.60;99.90;;;;;;5074605;28;19954;-70
2023/04/25 14:03:43;;;;;;;;;;;14.60;99.90;;;;;;5074935;28;19916;-71
2023/04/25 14:06:09;;;;;;;;;;;14.50;99.90;;;;;;5075344;28;19915;-71
2023/04/25 14:08:34;;;;;;;;;;;14.60;99.90;;;;;;5074974;28;19917;-71
2023/04/25 14:11:00;;;;;;;;;;;14.60;99.90;;;;;;5075865;28;19912;-71